Airfield :







YOU CAN JOIN US ON...

 
LOGIN :

Register | Disclaimer

   EN    FR    IT 

 









Legend :    VFR   Marginal VFR   IFR   Intensive IFR   Very Intensive IFR
Visi :
Ceiling :
>= 8 km
>= 3000ft
5 to 8 km
1000 to 3000 ft
1500m to 5 km
500 to 1000 ft
800 to 1500m
200 to 500 ft
< 800m
< 200 ft
Symbols :   Thunderstorms  Fog  Heavy snow  Heavy precipitations  Wind > 20 kt







- Airport Elevation : 175 ft
- IATA code : YLC


CYLC - Kimmirut

CURRENT METAR :
  • 201800Z 28032G39KT 3SM -RA BR BKN011 OVC018 03/02 A2934 RMK FG2ST4SC2 RAG CIG FG OFSHR SLP941

EXPIRED METARs :
  • 201730Z 29031G42KT 3SM -RA BR BKN009 OVC016 03/02 A2933 RMK FG2ST4SC2 FG OFSHR SLP937
  • 201718Z 29032G44KT 6SM -RA BR BKN011 OVC018 03/02 A2932 RMK ST6SC2 RAG CIG PSBL LLWS SLP933
  • 201700Z 29023G35KT 6SM -RA BR BKN011 OVC025 03/02 A2931 RMK ST6SC2 RAG CIG VIS IMPRG SLP930
  • 201620Z 28028G39KT 6SM -RA BR BKN011 OVC014 03/02 A2930 RMK ST6ST2 SLP926
  • 201600Z 29027G38KT 3SM -RA BR BKN008 OVC014 03/03 A2930 RMK FG3ST3ST2 RAG CIG FG OFSHR PSBL LLWS RWY 15/33 SLP926
  • 201540Z 28021G39KT 3SM -RA BR BKN008 OVC014 03/03 A2929 RMK FG2ST4ST2 RAG CIG FG OFSHR SLP925
  • 201500Z 28020G36KT 3SM -RA BR BKN008 OVC015 03/02 A2929 RMK FG3ST3SC2 RAG CIG FG OFSHR PSBL LLWS RWY 15/33 SLP925

TAF N/A
No reported NOTAMs for that airfield.



MET'MAP, your aeronautical weather chart ! - Copyright ORBIFLY December 2007 - Disclaimer

ORBIFLY MET'MAP TEAM :

Programming & Development : Alexandra Zaïnal
Concept & Development : Baudouin d'Aumeries
Co-Development & Prog : Marc-Olivier Méhu
Technical & hardware support : Manuel Goepfert

Contact : metmap@orbifly.com




SOURCES & CREDITS :

   NOAA